createdAt,value
2018-08-17T00:00:00.936Z,98779.23
2018-08-17T00:02:30.459Z,98778.34
2018-08-17T00:05:02.236Z,98787.42
2018-08-17T00:07:35.176Z,98784.47
2018-08-17T00:10:07.406Z,98781.16
2018-08-17T00:12:37.152Z,98782.10
2018-08-17T00:15:11.923Z,98774.84
2018-08-17T00:17:42.592Z,98770.62
2018-08-17T00:20:13.256Z,98770.81
2018-08-17T00:22:47.205Z,98765.36
2018-08-17T00:25:20.415Z,98770.78
2018-08-17T00:27:53.748Z,98771.67
2018-08-17T00:30:25.520Z,98768.23
2018-08-17T00:32:54.335Z,98763.89
2018-08-17T00:35:25.520Z,98773.15
2018-08-17T00:37:58.267Z,98771.67
2018-08-17T00:40:27.808Z,98777.23
2018-08-17T00:43:01.201Z,98775.84
2018-08-17T00:45:30.903Z,98769.62
2018-08-17T00:48:01.152Z,98767.96
2018-08-17T00:50:31.768Z,98765.09
2018-08-17T00:53:01.862Z,98769.30
2018-08-17T00:55:33.470Z,98765.14
2018-08-17T00:58:05.065Z,98754.41
2018-08-17T01:00:35.262Z,98754.09
2018-08-17T01:03:08.780Z,98751.31
2018-08-17T01:05:39.084Z,98756.53
2018-08-17T01:08:09.338Z,98758.15
2018-08-17T01:10:39.221Z,98756.17
2018-08-17T01:13:13.317Z,98755.14
2018-08-17T01:15:43.315Z,98754.36
2018-08-17T01:18:15.137Z,98756.77
2018-08-17T01:20:44.403Z,98756.86
2018-08-17T01:23:15.816Z,98756.15
2018-08-17T01:25:54.363Z,98754.48
2018-08-17T01:28:24.829Z,98755.12
2018-08-17T01:30:55.604Z,98752.27
2018-08-17T01:33:26.233Z,98757.22
2018-08-17T01:35:55.883Z,98761.83
2018-08-17T01:38:26.222Z,98754.17
2018-08-17T01:40:56.363Z,98755.25
2018-08-17T01:43:28.050Z,98749.88
2018-08-17T01:45:56.952Z,98755.30
2018-08-17T01:48:28.045Z,98760.33
2018-08-17T01:50:58.269Z,98758.81
2018-08-17T01:53:33.988Z,98758.42
2018-08-17T01:56:04.721Z,98761.41
2018-08-17T01:58:38.483Z,98758.66
2018-08-17T02:01:10.319Z,98757.50
2018-08-17T02:03:40.016Z,98756.90
2018-08-17T02:06:12.257Z,98752.45
2018-08-17T02:08:41.875Z,98757.25
2018-08-17T02:11:15.751Z,98722.23
2018-08-17T02:13:47.724Z,98767.77
2018-08-17T02:16:20.188Z,98760.77
2018-08-17T02:18:49.900Z,98751.14
2018-08-17T02:21:21.935Z,98761.53
2018-08-17T02:23:52.804Z,98761.56
2018-08-17T02:26:22.579Z,98754.32
2018-08-17T02:28:51.759Z,98757.95
2018-08-17T02:31:23.356Z,98762.82
2018-08-17T02:33:59.286Z,98755.83
2018-08-17T02:36:29.920Z,98760.61
2018-08-17T02:39:00.612Z,98759.41
2018-08-17T02:41:29.957Z,98764.09
2018-08-17T02:44:01.813Z,98760.45
2018-08-17T02:46:33.658Z,98764.03
2018-08-17T02:49:06.709Z,98754.81
2018-08-17T02:51:43.253Z,98756.14
2018-08-17T02:54:13.101Z,98749.56
2018-08-17T02:56:43.464Z,98751.83
2018-08-17T02:59:16.586Z,98753.84
2018-08-17T03:01:48.800Z,98749.46
2018-08-17T03:04:20.553Z,98750.09
2018-08-17T03:06:51.046Z,98752.11
2018-08-17T03:09:21.160Z,98749.88
2018-08-17T03:11:51.103Z,98750.76
2018-08-17T03:14:20.640Z,98751.16
2018-08-17T03:17:00.234Z,98753.66
2018-08-17T03:19:33.357Z,98754.97
2018-08-17T03:22:05.186Z,98756.34
2018-08-17T03:24:35.018Z,98754.54
2018-08-17T03:27:08.524Z,98755.39
2018-08-17T03:29:40.092Z,98755.20
2018-08-17T03:32:09.433Z,98758.05
2018-08-17T03:34:39.256Z,98763.72
2018-08-17T03:37:10.290Z,98761.80
2018-08-17T03:39:41.728Z,98765.03
2018-08-17T03:42:11.452Z,98756.53
2018-08-17T03:44:47.975Z,98766.31
2018-08-17T03:47:19.827Z,98763.49
2018-08-17T03:49:49.846Z,98766.72
2018-08-17T03:52:22.856Z,98773.27
2018-08-17T03:54:51.792Z,98773.19
2018-08-17T03:57:20.825Z,98776.75
2018-08-17T03:59:50.478Z,98772.30
2018-08-17T04:02:19.384Z,98773.45
2018-08-17T04:04:49.453Z,98772.06
2018-08-17T04:07:23.254Z,98777.97
2018-08-17T04:09:54.788Z,98773.31
2018-08-17T04:12:28.747Z,98780.16
2018-08-17T04:14:59.847Z,98780.95
2018-08-17T04:17:30.808Z,98780.69
2018-08-17T04:20:00.468Z,98790.95
2018-08-17T04:22:32.977Z,98794.62
2018-08-17T04:25:05.031Z,98797.34
2018-08-17T04:27:36.421Z,98799.55
2018-08-17T04:30:08.357Z,98798.38
2018-08-17T04:32:39.227Z,98794.14
2018-08-17T04:35:10.819Z,98797.17
2018-08-17T04:37:43.439Z,98799.92
2018-08-17T04:40:14.106Z,98803.64
2018-08-17T04:42:47.533Z,98807.03
2018-08-17T04:45:17.528Z,98809.94
2018-08-17T04:47:49.105Z,98817.58
2018-08-17T04:50:20.801Z,98808.69
2018-08-17T04:52:53.049Z,98813.39
2018-08-17T04:55:29.143Z,98813.02
2018-08-17T04:58:02.216Z,98818.05
2018-08-17T05:00:40.300Z,98823.48
2018-08-17T05:03:11.754Z,98821.51
2018-08-17T05:05:40.732Z,98820.13
2018-08-17T05:08:10.116Z,98822.36
2018-08-17T05:10:39.994Z,98820.23
2018-08-17T05:13:11.349Z,98819.79
2018-08-17T05:15:40.804Z,98821.96
2018-08-17T05:18:15.500Z,98827.64
2018-08-17T05:20:44.480Z,98830.04
2018-08-17T05:23:13.661Z,98832.29
2018-08-17T05:25:42.747Z,98837.09
2018-08-17T05:28:16.803Z,98846.64
2018-08-17T05:30:47.639Z,98845.98
2018-08-17T05:33:17.710Z,98848.02
2018-08-17T05:35:47.157Z,98851.27
2018-08-17T05:38:17.756Z,98858.55
2018-08-17T05:40:48.868Z,98852.67
2018-08-17T05:43:18.025Z,98860.28
2018-08-17T05:45:49.809Z,98865.34
2018-08-17T05:48:20.071Z,98869.36
2018-08-17T05:50:50.093Z,98870.22
2018-08-17T05:53:19.875Z,98873.91
2018-08-17T05:55:48.242Z,98868.14
2018-08-17T05:58:16.580Z,98880.25
2018-08-17T06:00:46.287Z,98872.73
2018-08-17T06:03:15.338Z,98879.06
2018-08-17T06:05:45.259Z,98877.84
2018-08-17T06:08:14.880Z,98880.27
2018-08-17T06:10:44.783Z,98883.45
2018-08-17T06:20:14.532Z,98888.59
2018-08-17T06:22:43.069Z,98895.47
2018-08-17T06:25:14.139Z,98882.98
2018-08-17T06:27:44.420Z,98882.30
2018-08-17T06:30:14.408Z,98885.36
2018-08-17T06:32:43.365Z,98891.11
2018-08-17T06:35:14.496Z,98884.38
2018-08-17T06:37:43.590Z,98889.03
2018-08-17T06:40:12.310Z,98903.14
2018-08-17T06:46:13.623Z,98898.03
2018-08-17T06:48:41.961Z,98899.91
2018-08-17T06:51:10.682Z,98900.84
2018-08-17T06:53:39.441Z,98900.75
2018-08-17T06:56:07.836Z,98878.72
2018-08-17T06:58:36.372Z,98907.30
2018-08-17T07:01:05.734Z,98910.95
2018-08-17T07:03:34.740Z,98921.85
2018-08-17T07:06:03.290Z,98914.92
2018-08-17T07:08:32.792Z,98935.39
2018-08-17T07:11:01.182Z,98930.44
2018-08-17T07:13:31.055Z,98932.88
2018-08-17T07:15:59.465Z,98929.16
2018-08-17T07:18:29.400Z,98936.77
2018-08-17T07:20:58.720Z,98941.18
2018-08-17T07:23:29.060Z,98942.49
2018-08-17T07:25:58.439Z,98950.09
2018-08-17T07:28:27.776Z,98949.69
2018-08-17T07:30:56.388Z,98957.31
2018-08-17T07:33:25.271Z,98955.97
2018-08-17T07:35:54.733Z,98955.76
2018-08-17T07:38:23.085Z,98957.96
2018-08-17T07:40:51.440Z,98955.59
2018-08-17T07:43:20.953Z,98956.52
2018-08-17T07:45:53.108Z,98960.51
2018-08-17T07:48:22.882Z,98954.96
2018-08-17T07:50:51.268Z,98959.28
2018-08-17T07:53:21.783Z,98962.16
2018-08-17T07:55:50.741Z,98962.06
2018-08-17T07:58:20.060Z,98972.77
2018-08-17T08:00:49.468Z,98975.91
2018-08-17T08:03:18.281Z,98974.53
2018-08-17T08:05:47.673Z,98983.53
2018-08-17T08:08:16.512Z,98984.41
2018-08-17T08:10:44.873Z,98988.47
2018-08-17T08:13:14.216Z,98991.11
2018-08-17T08:15:43.181Z,99000.49
2018-08-17T08:18:12.624Z,99015.88
2018-08-17T08:20:43.268Z,99013.23
2018-08-17T08:23:29.731Z,99011.81
2018-08-17T08:25:59.307Z,99006.27
2018-08-17T08:28:28.631Z,99012.47
2018-08-17T08:30:58.240Z,99003.33
2018-08-17T08:33:27.288Z,99004.86
2018-08-17T08:35:55.857Z,98997.27
2018-08-17T08:38:24.319Z,99008.30
2018-08-17T08:40:53.216Z,99010.80
2018-08-17T08:43:22.604Z,99019.31
2018-08-17T08:45:51.519Z,99009.45
2018-08-17T08:48:20.565Z,99014.82
2018-08-17T08:50:50.133Z,98986.70
2018-08-17T08:53:18.868Z,99010.78
2018-08-17T08:55:47.506Z,99011.88
2018-08-17T08:58:16.732Z,99012.50
2018-08-17T09:00:45.854Z,99018.13
2018-08-17T09:03:16.426Z,99017.30
2018-08-17T09:05:45.610Z,99017.17
2018-08-17T09:08:14.309Z,99018.94
2018-08-17T09:10:43.124Z,99023.60
2018-08-17T09:13:12.848Z,99027.91
2018-08-17T09:15:42.080Z,99034.52
2018-08-17T09:18:13.014Z,99030.58
2018-08-17T09:20:41.863Z,99015.09
2018-08-17T09:23:12.683Z,99025.72
2018-08-17T09:25:43.600Z,99026.00
2018-08-17T09:28:12.004Z,99020.96
2018-08-17T09:30:40.906Z,99026.72
2018-08-17T09:33:10.549Z,99028.17
2018-08-17T09:35:38.912Z,99023.31
2018-08-17T09:38:07.720Z,99019.64
2018-08-17T09:40:36.501Z,99011.95
2018-08-17T09:43:05.809Z,99014.45
2018-08-17T09:45:34.582Z,99019.69
2018-08-17T09:48:02.970Z,99012.18
2018-08-17T09:50:31.330Z,99014.73
2018-08-17T09:53:00.427Z,99013.16
2018-08-17T09:55:30.768Z,99010.59
2018-08-17T09:57:59.477Z,99008.41
2018-08-17T10:00:34.352Z,99011.86
2018-08-17T10:04:12.197Z,99008.69
2018-08-17T10:06:45.849Z,98995.65
2018-08-17T10:09:19.777Z,99009.22
2018-08-17T10:11:50.042Z,99001.38
2018-08-17T10:14:19.367Z,99005.66
2018-08-17T10:16:47.945Z,99004.97
2018-08-17T10:19:17.603Z,99001.58
2018-08-17T10:21:50.692Z,99008.60
2018-08-17T10:24:19.713Z,99012.73
2018-08-17T10:26:50.624Z,99013.79
2018-08-17T10:29:22.618Z,99018.41
2018-08-17T10:31:53.643Z,99020.28
2018-08-17T10:34:26.428Z,99022.80
2018-08-17T10:36:55.244Z,99021.69
2018-08-17T10:39:24.457Z,99018.63
2018-08-17T10:41:53.704Z,99017.72
2018-08-17T10:44:22.876Z,99014.54
2018-08-17T10:46:51.456Z,99008.80
2018-08-17T10:49:20.076Z,99010.44
2018-08-17T10:51:49.816Z,99001.84
2018-08-17T10:54:18.469Z,99007.58
2018-08-17T10:56:47.402Z,99010.96
2018-08-17T10:59:15.811Z,99008.09
2018-08-17T11:01:46.148Z,99005.08
2018-08-17T11:04:16.488Z,99009.33
2018-08-17T11:06:45.783Z,99004.56
2018-08-17T11:09:17.310Z,98997.84
2018-08-17T11:11:46.458Z,98993.97
2018-08-17T11:14:17.217Z,98992.55
2018-08-17T11:16:48.021Z,98994.17
2018-08-17T11:19:16.920Z,98985.80
2018-08-17T11:21:50.473Z,98987.84
2018-08-17T11:24:19.225Z,98993.59
2018-08-17T11:26:47.632Z,98991.33
2018-08-17T11:29:17.034Z,98988.63
2018-08-17T11:31:46.287Z,98987.50
2018-08-17T11:34:15.498Z,98985.61
2018-08-17T11:36:44.732Z,98975.00
2018-08-17T11:39:13.404Z,98972.09
2018-08-17T11:41:42.792Z,98978.45
2018-08-17T11:44:15.976Z,98982.03
2018-08-17T11:46:46.200Z,98986.52
2018-08-17T11:49:15.544Z,98975.17
2018-08-17T11:51:44.567Z,98981.87
2018-08-17T11:54:13.665Z,98974.00
2018-08-17T11:56:43.264Z,98982.80
2018-08-17T11:59:11.656Z,98979.68
2018-08-17T12:01:40.025Z,98983.73
2018-08-17T12:04:10.652Z,98975.28
2018-08-17T12:06:39.015Z,98977.59
2018-08-17T12:09:08.712Z,98981.03
2018-08-17T12:11:37.108Z,98967.87
2018-08-17T12:14:07.268Z,98971.23
2018-08-17T12:16:36.436Z,98975.97
2018-08-17T12:19:07.121Z,98977.36
2018-08-17T12:21:36.147Z,98976.47
2018-08-17T12:24:04.526Z,98980.22
2018-08-17T12:26:37.932Z,98970.33
2018-08-17T12:29:06.841Z,98977.98
2018-08-17T12:31:35.456Z,98979.95
2018-08-17T12:34:03.868Z,98972.45
2018-08-17T12:36:33.241Z,98973.17
2018-08-17T12:39:02.076Z,98971.97
2018-08-17T12:41:32.349Z,98972.23
2018-08-17T12:44:03.083Z,98966.75
2018-08-17T12:46:32.369Z,98971.38
2018-08-17T12:49:00.956Z,98972.48
2018-08-17T12:51:29.292Z,98969.96
2018-08-17T12:53:58.550Z,98972.76
2018-08-17T12:56:26.931Z,98973.63
2018-08-17T12:58:55.696Z,98971.98
2018-08-17T13:01:24.460Z,98969.39
2018-08-17T13:03:53.460Z,98964.32
2018-08-17T13:06:21.986Z,98972.55
2018-08-17T13:08:51.837Z,98966.19
2018-08-17T13:11:22.125Z,98960.64
2018-08-17T13:13:53.721Z,98967.05
2018-08-17T13:16:22.563Z,98952.28
2018-08-17T13:18:50.890Z,98957.59
2018-08-17T13:21:20.250Z,98956.20
2018-08-17T13:23:50.161Z,98964.23
2018-08-17T13:26:19.432Z,98953.17
2018-08-17T13:28:49.396Z,98959.87
2018-08-17T13:31:18.389Z,98951.61
2018-08-17T13:33:46.733Z,98949.22
2018-08-17T13:36:17.569Z,98966.22
2018-08-17T13:38:46.876Z,98888.63
2018-08-17T13:41:15.229Z,98964.07
2018-08-17T13:43:43.587Z,98961.81
2018-08-17T13:46:11.979Z,98960.21
2018-08-17T13:48:41.088Z,98951.80
2018-08-17T13:51:09.576Z,98946.31
2018-08-17T13:53:38.523Z,98940.75
2018-08-17T13:56:06.916Z,98933.05
2018-08-17T13:58:37.383Z,98928.97
2018-08-17T14:01:07.352Z,98937.87
2018-08-17T14:03:36.753Z,98931.51
2018-08-17T14:06:05.435Z,98935.17
2018-08-17T14:08:35.571Z,98928.71
2018-08-17T14:11:03.968Z,98940.99
2018-08-17T14:13:33.836Z,98880.30
2018-08-17T14:16:04.065Z,98944.45
2018-08-17T14:18:33.064Z,98945.61
2018-08-17T14:21:01.678Z,98948.80
2018-08-17T14:23:30.653Z,98942.21
2018-08-17T14:25:59.341Z,98951.88
2018-08-17T14:28:28.047Z,98957.11
2018-08-17T14:30:57.051Z,98953.99
2018-08-17T14:33:27.401Z,98957.86
2018-08-17T14:35:56.336Z,98952.98
2018-08-17T14:38:33.720Z,98960.20
2018-08-17T14:41:03.363Z,98962.55
2018-08-17T14:43:31.972Z,98969.52
2018-08-17T14:46:00.664Z,98961.55
2018-08-17T14:48:30.084Z,98968.31
2018-08-17T14:50:59.144Z,98971.00
2018-08-17T14:53:28.941Z,98965.31
2018-08-17T14:55:57.509Z,98978.11
2018-08-17T14:58:26.293Z,98973.78
2018-08-17T15:01:57.651Z,98977.63
2018-08-17T15:04:26.160Z,98981.83
2018-08-17T15:06:54.616Z,98981.47
2018-08-17T15:09:23.036Z,98993.65
2018-08-17T15:11:52.292Z,98994.39
2018-08-17T15:14:21.129Z,98993.27
2018-08-17T15:16:51.428Z,98994.16
2018-08-17T15:19:20.736Z,98990.58
2018-08-17T15:21:50.484Z,98985.11
2018-08-17T15:24:19.760Z,98982.44
2018-08-17T15:26:49.592Z,98990.52
2018-08-17T15:29:18.636Z,98974.63
2018-08-17T15:31:47.987Z,98973.84
2018-08-17T15:34:31.149Z,98973.14
2018-08-17T15:37:01.320Z,98957.98
2018-08-17T15:39:29.644Z,98972.36
2018-08-17T15:41:58.973Z,98957.28
2018-08-17T15:44:28.000Z,98972.66
2018-08-17T15:46:59.020Z,98968.84
2018-08-17T15:49:34.880Z,98960.25
2018-08-17T15:52:06.384Z,98976.67
2018-08-17T15:54:34.671Z,98975.56
2018-08-17T15:57:03.136Z,98966.27
2018-08-17T15:59:33.290Z,98970.00
2018-08-17T16:02:02.466Z,98972.77
2018-08-17T16:04:31.609Z,98958.58
2018-08-17T16:07:01.148Z,98968.21
2018-08-17T16:09:30.191Z,98969.47
2018-08-17T16:11:59.337Z,98969.52
2018-08-17T16:14:28.240Z,98965.36
2018-08-17T16:16:56.945Z,98969.61
2018-08-17T16:19:25.575Z,98967.89
2018-08-17T16:21:55.364Z,98974.66
2018-08-17T16:24:25.784Z,98970.79
2018-08-17T16:26:54.572Z,98971.19
2018-08-17T16:29:23.825Z,98967.51
2018-08-17T16:31:52.585Z,98975.91
2018-08-17T16:34:20.913Z,98989.56
2018-08-17T16:36:49.684Z,98988.16
2018-08-17T16:39:18.781Z,98995.91
2018-08-17T16:41:49.210Z,99011.98
2018-08-17T16:44:18.437Z,99019.66
2018-08-17T16:46:46.767Z,99028.72
2018-08-17T16:49:15.831Z,99029.98
2018-08-17T16:51:44.157Z,99034.34
2018-08-17T16:54:14.580Z,99032.47
2018-08-17T16:56:43.011Z,99033.63
2018-08-17T16:59:12.244Z,99040.75
2018-08-17T17:01:43.091Z,99038.20
2018-08-17T17:04:12.517Z,99049.16
2018-08-17T17:06:41.856Z,99051.70
2018-08-17T17:09:11.896Z,99057.41
2018-08-17T17:11:40.431Z,99068.44
2018-08-17T17:14:08.833Z,99070.70
2018-08-17T17:16:44.788Z,99082.83
2018-08-17T17:19:15.598Z,99092.20
2018-08-17T17:21:47.952Z,99101.09
2018-08-17T17:24:17.491Z,99112.95
2018-08-17T17:26:45.880Z,99116.66
2018-08-17T17:29:15.145Z,99129.58
2018-08-17T17:31:44.912Z,99141.56
2018-08-17T17:34:14.329Z,99139.28
2018-08-17T17:36:42.679Z,99137.60
2018-08-17T17:39:13.133Z,99144.09
2018-08-17T17:41:42.672Z,99149.81
2018-08-17T17:44:13.734Z,99159.94
2018-08-17T17:46:42.104Z,99163.45
2018-08-17T17:49:11.268Z,99169.30
2018-08-17T17:51:40.825Z,99170.41
2018-08-17T17:54:12.240Z,99169.55
2018-08-17T17:56:41.232Z,99177.26
2018-08-17T17:59:18.689Z,99188.67
2018-08-17T18:01:47.769Z,99195.34
2018-08-17T18:04:17.560Z,99195.20
2018-08-17T18:06:47.660Z,99201.89
2018-08-17T18:09:18.956Z,99211.98
2018-08-17T18:11:49.301Z,99221.92
2018-08-17T18:14:18.764Z,99225.95
2018-08-17T18:16:48.155Z,99238.28
2018-08-17T18:19:16.599Z,99236.78
2018-08-17T18:21:47.016Z,99244.72
2018-08-17T18:24:17.694Z,99253.87
2018-08-17T18:26:48.272Z,99269.52
2018-08-17T18:29:19.485Z,99265.73
2018-08-17T18:31:48.485Z,99278.01
2018-08-17T18:34:19.374Z,99284.59
2018-08-17T18:36:48.361Z,99302.61
2018-08-17T18:39:19.800Z,99314.33
2018-08-17T18:41:52.508Z,99324.93
2018-08-17T18:44:21.628Z,99308.07
2018-08-17T18:46:51.954Z,99334.05
2018-08-17T18:49:22.000Z,99339.91
2018-08-17T18:51:52.302Z,99343.48
2018-08-17T18:54:22.114Z,99344.89
2018-08-17T18:56:51.352Z,99339.77
2018-08-17T18:59:21.498Z,99343.09
2018-08-17T19:01:51.248Z,99334.97
2018-08-17T19:04:19.612Z,99341.18
2018-08-17T19:06:49.175Z,99337.93
2018-08-17T19:09:17.809Z,99334.00
2018-08-17T19:11:48.867Z,99331.00
2018-08-17T19:14:18.601Z,99328.27
2018-08-17T19:16:47.516Z,99331.00
2018-08-17T19:19:15.975Z,99338.18
2018-08-17T19:21:45.352Z,99335.66
2018-08-17T19:24:16.815Z,99334.00
2018-08-17T19:26:46.326Z,99345.48
2018-08-17T19:29:14.910Z,99336.50
2018-08-17T19:31:49.338Z,99339.73
2018-08-17T19:34:19.403Z,99338.58
2018-08-17T19:36:47.856Z,99335.15
2018-08-17T19:39:20.758Z,99335.54
2018-08-17T19:41:53.211Z,99332.27
2018-08-17T19:44:22.396Z,99332.38
2018-08-17T19:46:52.522Z,99332.73
2018-08-17T19:49:24.568Z,99334.20
2018-08-17T19:51:54.216Z,99329.77
2018-08-17T19:54:24.163Z,99332.31
2018-08-17T19:56:54.026Z,99325.74
2018-08-17T19:59:23.164Z,99337.28
2018-08-17T20:01:54.226Z,99335.39
2018-08-17T20:04:23.893Z,99344.48
2018-08-17T20:06:53.703Z,99336.08
2018-08-17T20:09:23.236Z,99338.77
2018-08-17T20:11:53.292Z,99337.55
2018-08-17T20:14:23.472Z,99346.52
2018-08-17T20:16:52.868Z,99348.35
2018-08-17T20:19:22.104Z,99333.98
2018-08-17T20:21:53.599Z,99331.11
2018-08-17T20:24:22.744Z,99335.57
2018-08-17T20:26:53.960Z,99331.09
2018-08-17T20:29:22.403Z,99338.15
2018-08-17T20:31:54.536Z,99332.19
2018-08-17T20:34:25.848Z,99324.97
2018-08-17T20:36:57.224Z,99327.77
2018-08-17T20:39:27.264Z,99335.02
2018-08-17T20:41:56.126Z,99332.67
2018-08-17T20:44:25.182Z,99335.20
2018-08-17T20:46:55.884Z,99342.63
2018-08-17T20:49:25.256Z,99347.04
2018-08-17T20:51:58.688Z,99351.40
2018-08-17T20:54:29.630Z,99358.88
2018-08-17T20:57:00.047Z,99370.61
2018-08-17T20:59:36.169Z,99373.19
2018-08-17T21:02:06.098Z,99367.97
2018-08-17T21:04:36.191Z,99372.80
2018-08-17T21:07:06.048Z,99373.59
2018-08-17T21:09:37.618Z,99377.92
2018-08-17T21:12:07.497Z,99385.20
2018-08-17T21:14:38.151Z,99394.13
2018-08-17T21:17:08.995Z,99400.43
2018-08-17T21:19:40.367Z,99408.34
2018-08-17T21:22:11.281Z,99409.38
2018-08-17T21:24:41.832Z,99405.11
2018-08-17T21:27:11.314Z,99405.34
2018-08-17T21:29:41.073Z,99415.94
2018-08-17T21:32:11.642Z,99411.83
2018-08-17T21:34:41.983Z,99412.45
2018-08-17T21:37:11.814Z,99420.30
2018-08-17T21:39:42.267Z,99423.96
2018-08-17T21:42:10.985Z,99421.66
2018-08-17T21:44:40.828Z,99427.72
2018-08-17T21:47:10.489Z,99425.43
2018-08-17T21:49:42.833Z,99434.55
2018-08-17T21:52:17.881Z,99435.95
2018-08-17T21:54:48.707Z,99449.44
2018-08-17T21:57:18.188Z,99443.59
2018-08-17T21:59:49.219Z,99444.22
2018-08-17T22:02:20.022Z,99446.83
2018-08-17T22:04:50.323Z,99451.50
2018-08-17T22:07:25.910Z,99458.29
2018-08-17T22:09:57.153Z,99460.80
2018-08-17T22:12:27.491Z,99464.30
2018-08-17T22:14:58.087Z,99468.02
2018-08-17T22:17:37.277Z,99480.75
2018-08-17T22:20:07.748Z,99477.39
2018-08-17T22:22:41.501Z,99479.62
2018-08-17T22:25:16.795Z,99478.42
2018-08-17T22:27:45.296Z,99470.52
2018-08-17T22:30:23.578Z,99476.02
2018-08-17T22:32:52.085Z,99475.13
2018-08-17T22:35:20.916Z,99479.81
2018-08-17T22:37:51.165Z,99486.42
2018-08-17T22:40:21.749Z,99482.77
2018-08-17T22:42:51.365Z,99478.41
2018-08-17T22:45:22.487Z,99476.98
2018-08-17T22:47:53.191Z,99474.44
2018-08-17T22:50:22.107Z,99474.23
2018-08-17T22:52:52.234Z,99464.33
2018-08-17T22:55:22.546Z,99456.77
2018-08-17T22:57:55.494Z,99456.45
2018-08-17T23:00:28.204Z,99465.45
2018-08-17T23:02:59.748Z,99468.20
2018-08-17T23:05:33.320Z,99471.06
2018-08-17T23:08:02.955Z,99478.97
2018-08-17T23:10:31.347Z,99483.00
2018-08-17T23:13:00.776Z,99487.80
2018-08-17T23:15:29.814Z,99489.56
2018-08-17T23:18:00.932Z,99490.16
2018-08-17T23:20:39.782Z,99495.28
2018-08-17T23:23:09.223Z,99485.62
2018-08-17T23:25:38.614Z,99488.73
2018-08-17T23:28:08.557Z,99491.37
2018-08-17T23:30:39.492Z,99496.86
2018-08-17T23:33:08.825Z,99497.22
2018-08-17T23:35:38.332Z,99493.34
2018-08-17T23:38:09.680Z,99500.60
2018-08-17T23:40:39.462Z,99496.77
2018-08-17T23:43:13.749Z,99495.51
2018-08-17T23:45:43.863Z,99502.20
2018-08-17T23:48:19.656Z,99500.63
2018-08-17T23:50:48.889Z,99502.23
2018-08-17T23:53:18.656Z,99497.03
2018-08-17T23:55:47.588Z,99502.59
2018-08-17T23:58:15.974Z,99498.22
